Time;durP1;ratioP1;P1;durP2;ratioP2;P2;SDS_P1;SDS_P2;PMS_P1;PMS_P2;Temp;Humidity;BMP_temperature;BMP_pressure;BME280_temperature;BME280_humidity;BME280_pressure;Samples;Min_cycle;Max_cycle;Signal;HPM_P1;HPM_P2
2022/06/21 00:01:52;;;;;;;5.43;4.80;;;24.30;99.90;;;;;;4958071;28;20228;-80
2022/06/21 00:04:19;;;;;;;7.32;4.80;;;24.30;99.90;;;;;;4957426;28;20234;-82
2022/06/21 00:06:46;;;;;;;4.78;4.38;;;24.20;99.90;;;;;;4959402;28;20221;-84
2022/06/21 00:09:14;;;;;;;6.05;4.53;;;24.20;99.90;;;;;;4958414;28;20226;-83
2022/06/21 00:11:42;;;;;;;5.40;4.93;;;24.10;99.90;;;;;;4956226;28;20307;-81
2022/06/21 00:14:09;;;;;;;5.00;4.60;;;24.10;99.90;;;;;;4960408;28;20216;-83
2022/06/21 00:16:36;;;;;;;6.03;4.85;;;24.10;99.90;;;;;;4958925;28;21008;-83
2022/06/21 00:19:11;;;;;;;6.22;4.85;;;24.10;99.90;;;;;;4957692;28;20707;-83
2022/06/21 00:21:40;;;;;;;5.53;5.03;;;24.10;99.90;;;;;;4956984;28;20228;-83
2022/06/21 00:24:08;;;;;;;7.15;4.70;;;24.10;99.90;;;;;;4954688;28;20244;-82
2022/06/21 00:26:36;;;;;;;5.28;4.78;;;24.10;99.90;;;;;;4958594;28;20230;-83
2022/06/21 00:29:03;;;;;;;5.43;4.75;;;24.10;99.90;;;;;;4956496;28;20206;-83
2022/06/21 00:31:33;;;;;;;5.30;4.80;;;24.10;99.90;;;;;;4957420;28;20229;-81
2022/06/21 00:34:06;;;;;;;5.72;5.15;;;24.10;99.90;;;;;;4954936;28;20222;-84
2022/06/21 00:36:36;;;;;;;5.65;4.93;;;24.10;99.90;;;;;;4961301;28;20724;-83
2022/06/21 00:39:05;;;;;;;5.22;4.72;;;24.10;99.90;;;;;;4956401;28;20232;-83
2022/06/21 00:41:40;;;;;;;5.47;4.97;;;24.00;99.90;;;;;;4962262;28;20285;-80
2022/06/21 00:44:11;;;;;;;5.15;4.60;;;24.00;99.90;;;;;;4954589;28;20221;-79
2022/06/21 00:46:43;;;;;;;6.97;4.72;;;24.00;99.90;;;;;;4958362;28;20862;-77
2022/06/21 00:49:19;;;;;;;5.35;4.85;;;24.00;99.90;;;;;;4957105;28;20218;-77
2022/06/21 00:51:48;;;;;;;6.03;5.20;;;24.00;99.90;;;;;;4954504;28;20573;-77
2022/06/21 00:54:20;;;;;;;7.13;5.30;;;24.00;99.90;;;;;;4955732;28;20218;-77
2022/06/21 00:56:52;;;;;;;5.80;4.70;;;24.00;99.90;;;;;;4953308;28;20226;-79
2022/06/21 00:59:23;;;;;;;6.38;5.45;;;24.00;99.90;;;;;;4955736;28;20208;-78
2022/06/21 01:01:51;;;;;;;6.43;5.82;;;23.90;99.90;;;;;;4953348;28;20234;-78
2022/06/21 01:04:25;;;;;;;5.35;4.80;;;23.80;99.90;;;;;;4952897;28;20222;-78
2022/06/21 01:06:57;;;;;;;4.90;4.40;;;23.70;99.90;;;;;;4949776;28;20448;-78
2022/06/21 01:09:31;;;;;;;5.07;4.57;;;23.60;99.90;;;;;;4954587;28;20198;-78
2022/06/21 01:12:03;;;;;;;5.25;4.75;;;23.50;99.90;;;;;;4953398;28;20236;-78
2022/06/21 01:14:33;;;;;;;4.75;4.28;;;23.50;99.90;;;;;;4953842;28;20716;-78
2022/06/21 01:17:00;;;;;;;5.18;4.68;;;23.50;99.90;;;;;;4956468;28;20977;-78
2022/06/21 01:19:38;;;;;;;4.90;4.43;;;23.40;99.90;;;;;;4955200;28;20198;-78
2022/06/21 01:22:16;;;;;;;5.43;4.95;;;23.40;99.90;;;;;;4956191;28;20229;-78
2022/06/21 01:24:55;;;;;;;5.50;4.93;;;23.40;99.90;;;;;;4953710;28;20222;-78
2022/06/21 01:27:23;;;;;;;5.22;4.70;;;23.40;99.90;;;;;;4955555;28;20222;-76
2022/06/21 01:29:53;;;;;;;5.35;4.88;;;23.40;99.90;;;;;;4960547;28;20599;-78
2022/06/21 01:32:21;;;;;;;5.07;4.68;;;23.30;99.90;;;;;;4952448;28;20331;-78
2022/06/21 01:34:49;;;;;;;5.43;4.93;;;23.30;99.90;;;;;;4959036;28;20214;-77
2022/06/21 01:37:25;;;;;;;4.80;4.38;;;23.20;99.90;;;;;;4957252;28;20226;-77
2022/06/21 01:39:59;;;;;;;5.20;4.70;;;23.20;99.90;;;;;;4954097;28;20221;-78
2022/06/21 01:42:32;;;;;;;5.22;4.72;;;23.20;99.90;;;;;;4956877;28;20229;-77
2022/06/21 01:45:04;;;;;;;5.20;4.60;;;23.10;99.90;;;;;;4957276;28;20222;-77
2022/06/21 01:47:40;;;;;;;6.03;5.05;;;23.10;99.90;;;;;;4960422;28;20222;-78
2022/06/21 01:50:10;;;;;;;5.47;4.80;;;23.10;99.90;;;;;;4959814;28;20205;-78
2022/06/21 01:52:41;;;;;;;5.80;5.22;;;23.10;99.90;;;;;;4956927;28;20226;-78
2022/06/21 01:55:12;;;;;;;5.40;4.90;;;23.00;99.90;;;;;;4958066;28;22559;-80
2022/06/21 01:57:42;;;;;;;5.38;4.88;;;23.00;99.90;;;;;;4959515;28;20222;-78
2022/06/21 02:00:10;;;;;;;8.35;5.13;;;23.00;99.90;;;;;;4959486;28;20249;-78
2022/06/21 02:02:41;;;;;;;6.45;5.32;;;22.90;99.90;;;;;;4958466;28;20222;-78
2022/06/21 02:05:12;;;;;;;5.18;4.78;;;23.00;99.90;;;;;;4960725;28;20596;-78
2022/06/21 02:07:45;;;;;;;6.15;5.30;;;23.00;99.90;;;;;;4959996;28;20221;-79
2022/06/21 02:10:21;;;;;;;5.65;5.13;;;23.00;99.90;;;;;;4960825;28;20217;-79
2022/06/21 02:12:52;;;;;;;5.88;5.28;;;23.10;99.90;;;;;;4959569;28;20236;-78
2022/06/21 02:15:29;;;;;;;5.47;4.97;;;23.10;99.90;;;;;;4959637;28;20214;-79
2022/06/21 02:17:59;;;;;;;5.72;5.15;;;23.20;99.90;;;;;;4957711;28;20279;-81
2022/06/21 02:20:32;;;;;;;6.88;5.10;;;23.20;99.90;;;;;;4956670;28;20695;-79
2022/06/21 02:23:00;;;;;;;5.88;5.38;;;23.10;99.90;;;;;;4956482;28;20213;-79
2022/06/21 02:25:28;;;;;;;6.57;5.35;;;23.20;99.90;;;;;;4956210;28;20240;-79
2022/06/21 02:28:01;;;;;;;5.95;5.35;;;23.10;99.90;;;;;;4956701;28;20221;-82
2022/06/21 02:30:30;;;;;;;6.07;4.90;;;23.10;99.90;;;;;;4957418;28;20209;-80
2022/06/21 02:33:01;;;;;;;6.03;5.43;;;23.10;99.90;;;;;;4957933;28;20253;-80
2022/06/21 02:35:33;;;;;;;5.78;5.28;;;23.00;99.90;;;;;;4954643;28;20194;-78
2022/06/21 02:38:03;;;;;;;5.43;4.93;;;22.90;99.90;;;;;;4958159;28;20231;-79
2022/06/21 02:40:34;;;;;;;5.50;5.10;;;22.90;99.90;;;;;;4957349;28;20587;-79
2022/06/21 02:43:09;;;;;;;5.65;4.70;;;22.80;99.90;;;;;;4958774;28;20221;-79
2022/06/21 02:45:47;;;;;;;5.40;4.97;;;22.70;99.90;;;;;;4956935;28;20248;-79
2022/06/21 02:48:18;;;;;;;5.72;5.22;;;22.60;99.90;;;;;;4958533;28;20229;-79
2022/06/21 02:50:49;;;;;;;5.32;4.88;;;22.60;99.90;;;;;;4958214;28;20318;-79
2022/06/21 02:53:20;;;;;;;7.22;5.40;;;22.50;99.90;;;;;;4957840;28;20264;-79
2022/06/21 02:55:54;;;;;;;6.35;5.22;;;22.50;99.90;;;;;;4959446;28;20198;-79
2022/06/21 02:58:27;;;;;;;4.97;4.57;;;22.50;99.90;;;;;;4958211;28;20229;-80
2022/06/21 03:00:55;;;;;;;5.00;4.70;;;22.50;99.90;;;;;;4961287;28;20209;-79
2022/06/21 03:03:26;;;;;;;5.22;4.82;;;22.50;99.90;;;;;;4958395;28;20700;-79
2022/06/21 03:05:57;;;;;;;6.50;6.00;;;22.50;99.90;;;;;;4957071;28;20569;-79
2022/06/21 03:08:24;;;;;;;5.72;5.00;;;22.50;99.90;;;;;;4956496;28;20224;-78
2022/06/21 03:10:52;;;;;;;6.93;5.40;;;22.50;99.90;;;;;;4957976;28;20212;-81
2022/06/21 03:13:23;;;;;;;5.75;5.22;;;22.50;99.90;;;;;;4958565;28;20225;-79
2022/06/21 03:15:56;;;;;;;6.30;5.00;;;22.50;99.90;;;;;;4956692;28;20296;-80
2022/06/21 03:18:26;;;;;;;5.70;5.20;;;22.50;99.90;;;;;;4960769;28;20279;-79
2022/06/21 03:20:54;;;;;;;5.60;5.10;;;22.50;99.90;;;;;;4956465;28;20596;-80
2022/06/21 03:23:23;;;;;;;5.63;5.13;;;22.50;99.90;;;;;;4961236;28;20225;-81
2022/06/21 03:25:53;;;;;;;6.05;5.05;;;22.50;99.90;;;;;;4959644;28;20244;-80
2022/06/21 03:28:29;;;;;;;5.45;4.95;;;22.40;99.90;;;;;;4960360;28;20230;-79
2022/06/21 03:31:06;;;;;;;5.28;4.80;;;22.40;99.90;;;;;;4957098;28;20205;-79
2022/06/21 03:33:35;;;;;;;6.22;5.63;;;22.50;99.90;;;;;;4958617;28;20221;-80
2022/06/21 03:36:05;;;;;;;6.07;5.53;;;22.50;99.90;;;;;;4961838;28;20230;-79
2022/06/21 03:38:33;;;;;;;7.65;5.97;;;22.50;99.90;;;;;;4960209;28;20222;-79
2022/06/21 03:43:49;;;;;;;5.80;5.10;;;22.30;99.90;;;;;;4960193;28;20831;-79
2022/06/21 03:46:22;;;;;;;6.15;5.45;;;22.30;99.90;;;;;;4958017;28;20226;-77
2022/06/21 03:48:55;;;;;;;6.72;5.50;;;22.30;99.90;;;;;;4963211;28;20326;-79
2022/06/21 03:51:36;;;;;;;6.00;5.50;;;22.10;99.90;;;;;;4955762;28;20190;-79
2022/06/21 03:54:09;;;;;;;6.10;5.40;;;22.10;99.90;;;;;;4953935;28;20232;-79
2022/06/21 03:56:43;;;;;;;6.68;5.78;;;22.10;99.90;;;;;;4960805;28;20218;-82
2022/06/21 03:59:19;;;;;;;5.95;5.40;;;22.30;99.90;;;;;;4983371;28;20225;-83
2022/06/21 04:01:54;;;;;;;6.00;5.50;;;22.30;99.90;;;;;;4982439;28;20573;-81
2022/06/21 04:04:29;;;;;;;5.90;5.10;;;22.40;99.90;;;;;;4987217;28;20867;-83
2022/06/21 04:07:03;;;;;;;8.05;6.00;;;22.40;99.90;;;;;;4974438;28;20233;-82
2022/06/21 04:09:42;;;;;;;8.10;5.90;;;22.20;99.90;;;;;;4976924;28;20221;-83
2022/06/21 04:12:14;;;;;;;6.70;5.25;;;22.10;99.90;;;;;;4965048;28;20221;-80
2022/06/21 04:14:48;;;;;;;5.40;4.82;;;22.10;99.90;;;;;;4968678;28;20218;-82
2022/06/21 04:17:22;;;;;;;6.13;5.53;;;22.10;99.90;;;;;;4977313;28;20245;-83
2022/06/21 04:19:53;;;;;;;5.85;5.20;;;22.10;99.90;;;;;;4978286;28;20245;-82
2022/06/21 04:22:28;;;;;;;6.28;5.00;;;22.00;99.90;;;;;;4979297;28;20319;-84
2022/06/21 04:25:02;;;;;;;5.80;5.30;;;22.10;99.90;;;;;;4986984;28;20228;-82
2022/06/21 04:27:35;;;;;;;6.03;5.47;;;22.10;99.90;;;;;;4992718;28;20208;-84
2022/06/21 04:30:05;;;;;;;5.80;5.00;;;22.10;99.90;;;;;;4990740;28;20641;-83
2022/06/21 04:32:39;;;;;;;5.97;5.38;;;22.20;99.90;;;;;;4984430;28;20261;-83
2022/06/21 04:35:11;;;;;;;6.18;5.45;;;22.20;99.90;;;;;;4989813;28;20226;-82
2022/06/21 04:37:43;;;;;;;6.07;5.47;;;22.20;99.90;;;;;;4987363;28;20198;-82
2022/06/21 04:40:16;;;;;;;7.57;5.70;;;22.30;99.90;;;;;;4972851;28;20241;-80
2022/06/21 04:42:47;;;;;;;6.07;5.53;;;22.40;99.90;;;;;;4987893;28;20221;-81
2022/06/21 04:45:20;;;;;;;5.72;5.22;;;22.50;99.90;;;;;;4980712;28;20217;-82
2022/06/21 04:47:53;;;;;;;6.00;5.43;;;22.70;99.90;;;;;;4981398;28;20190;-81
2022/06/21 04:50:29;;;;;;;5.40;4.90;;;23.00;99.90;;;;;;4962756;28;20229;-81
2022/06/21 04:53:01;;;;;;;6.10;5.60;;;23.10;99.90;;;;;;4961636;28;20208;-79
2022/06/21 04:55:37;;;;;;;7.63;6.20;;;23.20;99.90;;;;;;4972245;28;20189;-82
2022/06/21 04:58:04;;;;;;;6.97;6.28;;;23.30;99.90;;;;;;4959980;28;20214;-84
2022/06/21 05:00:31;;;;;;;8.07;6.05;;;23.30;99.90;;;;;;4953532;28;20940;-83
2022/06/21 05:03:05;;;;;;;8.05;6.82;;;23.10;99.90;;;;;;4959917;28;20865;-84
2022/06/21 05:05:35;;;;;;;7.22;6.53;;;23.00;99.90;;;;;;4954417;28;20217;-83
2022/06/21 05:08:09;;;;;;;8.52;7.72;;;22.80;99.90;;;;;;4946843;28;20202;-84
2022/06/21 05:10:43;;;;;;;9.43;8.35;;;22.70;99.90;;;;;;4960460;28;20222;-83
2022/06/21 05:13:18;;;;;;;8.55;7.03;;;22.70;99.90;;;;;;4967082;28;20208;-84
2022/06/21 05:15:45;;;;;;;8.18;7.50;;;22.60;99.90;;;;;;4961866;28;20216;-84
2022/06/21 05:18:17;;;;;;;7.35;6.72;;;22.70;99.90;;;;;;4963368;28;20210;-83
2022/06/21 05:20:51;;;;;;;7.82;7.03;;;22.80;99.90;;;;;;4959061;28;20230;-83
2022/06/21 05:23:20;;;;;;;8.57;7.63;;;23.00;99.90;;;;;;4959360;28;20205;-81
2022/06/21 05:25:48;;;;;;;7.85;7.05;;;23.00;99.90;;;;;;4958622;28;20229;-82
2022/06/21 05:28:23;;;;;;;7.10;6.43;;;22.90;99.90;;;;;;4962659;28;20272;-82
2022/06/21 05:30:54;;;;;;;8.43;7.72;;;23.00;99.90;;;;;;4958947;28;20224;-84
2022/06/21 05:33:28;;;;;;;7.75;7.05;;;23.10;99.90;;;;;;4956606;28;21102;-84
2022/06/21 05:35:55;;;;;;;7.65;6.85;;;23.10;99.90;;;;;;4961659;28;20205;-83
2022/06/21 05:38:27;;;;;;;7.78;7.07;;;22.90;99.90;;;;;;4964129;28;20210;-84
2022/06/21 05:41:00;;;;;;;10.18;7.78;;;22.90;99.90;;;;;;4944931;28;20237;-84
2022/06/21 05:43:33;;;;;;;8.23;7.20;;;22.90;99.90;;;;;;4937016;28;20229;-84
2022/06/21 05:46:02;;;;;;;7.63;6.85;;;23.10;99.90;;;;;;4955900;28;20835;-83
2022/06/21 05:48:34;;;;;;;8.68;7.78;;;23.40;99.90;;;;;;4959503;28;20211;-83
2022/06/21 05:51:03;;;;;;;9.10;8.20;;;23.50;99.90;;;;;;4956258;28;20229;-83
2022/06/21 05:53:34;;;;;;;8.20;7.40;;;23.60;99.90;;;;;;4970099;28;20281;-82
2022/06/21 05:56:05;;;;;;;8.55;7.68;;;23.70;99.90;;;;;;4978611;28;20217;-83
2022/06/21 05:58:37;;;;;;;9.52;8.50;;;23.70;99.90;;;;;;4971161;28;20201;-82
2022/06/21 06:01:10;;;;;;;8.65;7.75;;;23.60;99.90;;;;;;4967343;28;20252;-81
2022/06/21 06:03:42;;;;;;;8.75;7.53;;;23.50;99.90;;;;;;4970946;28;20200;-83
2022/06/21 06:06:13;;;;;;;8.25;6.70;;;23.60;99.90;;;;;;4967855;28;20292;-82
2022/06/21 06:08:44;;;;;;;8.40;7.57;;;23.70;99.90;;;;;;4968893;28;20661;-81
2022/06/21 06:11:16;;;;;;;9.88;8.63;;;23.70;99.90;;;;;;4964978;28;20237;-82
2022/06/21 06:13:44;;;;;;;9.77;8.77;;;23.90;99.90;;;;;;4969807;28;20661;-83
2022/06/21 06:16:31;;;;;;;10.18;9.20;;;24.00;99.90;;;;;;4963434;28;20269;-82
2022/06/21 06:19:05;;;;;;;10.23;9.23;;;24.00;99.90;;;;;;4961142;28;20202;-82
2022/06/21 06:21:38;;;;;;;10.90;9.30;;;24.00;99.90;;;;;;4968483;28;20252;-81
2022/06/21 06:24:16;;;;;;;11.88;9.85;;;23.90;99.90;;;;;;4958444;28;20641;-82
2022/06/21 06:26:47;;;;;;;11.25;10.15;;;23.80;99.90;;;;;;4955133;28;20225;-81
2022/06/21 06:29:21;;;;;;;11.27;9.40;;;23.80;99.90;;;;;;4957142;28;20233;-80
2022/06/21 06:31:55;;;;;;;10.70;9.68;;;23.90;99.90;;;;;;4962139;28;20197;-83
2022/06/21 06:34:27;;;;;;;10.90;9.00;;;24.10;99.90;;;;;;4962125;28;20220;-82
2022/06/21 06:36:57;;;;;;;11.27;9.48;;;24.30;99.90;;;;;;4959948;28;20214;-84
2022/06/21 06:39:26;;;;;;;11.15;10.05;;;24.50;99.90;;;;;;4959296;28;20244;-81
2022/06/21 06:42:01;;;;;;;10.27;9.38;;;24.60;99.90;;;;;;4957810;28;20214;-81
2022/06/21 06:44:29;;;;;;;9.88;8.98;;;24.70;99.90;;;;;;4958410;28;20233;-80
2022/06/21 06:46:58;;;;;;;10.13;9.13;;;24.90;99.90;;;;;;4958842;28;20212;-83
2022/06/21 06:49:33;;;;;;;10.85;9.80;;;25.10;99.90;;;;;;4956498;28;20241;-82
2022/06/21 06:52:06;;;;;;;10.88;9.80;;;25.20;99.90;;;;;;4951478;28;20217;-82
2022/06/21 06:54:43;;;;;;;11.70;10.35;;;25.20;99.90;;;;;;4953601;28;20229;-83
2022/06/21 06:57:21;;;;;;;12.00;10.18;;;25.10;99.90;;;;;;4956318;28;20198;-81
2022/06/21 06:59:48;;;;;;;11.55;10.27;;;24.90;99.90;;;;;;4957239;28;20312;-81
2022/06/21 07:02:22;;;;;;;10.70;9.70;;;24.80;99.90;;;;;;4954810;28;20205;-82
2022/06/21 07:05:02;;;;;;;10.68;9.55;;;24.80;99.90;;;;;;4954202;28;20667;-83
2022/06/21 07:07:37;;;;;;;10.57;9.65;;;24.90;99.90;;;;;;4957861;28;20198;-84
2022/06/21 07:10:10;;;;;;;12.15;10.30;;;25.00;99.90;;;;;;4953412;28;20238;-84
2022/06/21 07:12:38;;;;;;;11.07;9.93;;;24.90;99.90;;;;;;4953204;28;20246;-85
2022/06/21 07:15:06;;;;;;;11.95;10.85;;;24.70;99.90;;;;;;4952473;28;20319;-84
2022/06/21 07:17:39;;;;;;;10.48;9.43;;;24.70;99.90;;;;;;4950072;28;20209;-84
2022/06/21 07:20:15;;;;;;;10.82;9.73;;;25.00;99.90;;;;;;4953908;28;20272;-84
2022/06/21 07:22:44;;;;;;;11.13;10.02;;;25.30;99.90;;;;;;4953147;28;20222;-84
2022/06/21 07:25:20;;;;;;;11.60;10.40;;;25.40;99.90;;;;;;4953424;28;20818;-84
2022/06/21 07:27:53;;;;;;;13.35;10.88;;;25.70;99.90;;;;;;4952991;28;20202;-85
2022/06/21 07:30:23;;;;;;;10.30;9.35;;;25.80;99.90;;;;;;4956384;28;20228;-85
2022/06/21 07:32:54;;;;;;;12.57;10.20;;;25.80;99.90;;;;;;4953869;28;20203;-84
2022/06/21 07:35:28;;;;;;;11.02;9.93;;;25.80;99.90;;;;;;4952933;28;20304;-85
2022/06/21 07:38:00;;;;;;;12.50;10.05;;;25.80;99.90;;;;;;4951402;28;20616;-85
2022/06/21 07:40:33;;;;;;;12.25;9.82;;;25.80;99.90;;;;;;4956352;28;20225;-85
2022/06/21 07:43:05;;;;;;;10.80;9.70;;;25.90;99.90;;;;;;4957240;28;20201;-86
2022/06/21 07:45:38;;;;;;;11.43;10.18;;;26.20;99.90;;;;;;4953863;28;20225;-86
2022/06/21 07:48:11;;;;;;;9.98;9.07;;;26.30;99.90;;;;;;4953277;28;20677;-85
2022/06/21 07:50:44;;;;;;;10.43;9.40;;;26.40;99.90;;;;;;4949667;28;20724;-85
2022/06/21 07:53:18;;;;;;;12.68;9.55;;;26.40;99.90;;;;;;4960468;28;20198;-86
2022/06/21 07:55:50;;;;;;;12.60;10.20;;;26.20;99.90;;;;;;4948844;28;20248;-85
2022/06/21 07:58:22;;;;;;;10.15;9.23;;;25.90;99.90;;;;;;4950104;28;20213;-87
2022/06/21 08:06:45;;;;;;;10.73;9.00;;;25.60;99.90;;;;;;4951576;28;20792;-85
2022/06/21 08:09:22;;;;;;;10.50;9.40;;;25.70;99.90;;;;;;4954013;28;20216;-86
2022/06/21 08:11:53;;;;;;;10.07;9.18;;;25.70;99.90;;;;;;4956562;28;20201;-85
2022/06/21 08:14:20;;;;;;;10.35;9.35;;;25.60;99.90;;;;;;4949385;28;20549;-84
2022/06/21 08:16:54;;;;;;;9.68;8.70;;;25.60;99.90;;;;;;4955503;28;20197;-86
2022/06/21 08:19:29;;;;;;;13.00;9.15;;;25.80;99.90;;;;;;4956784;28;20218;-86
2022/06/21 08:22:02;;;;;;;10.57;9.30;;;26.10;99.90;;;;;;4950237;28;20209;-86
2022/06/21 08:24:39;;;;;;;10.23;8.52;;;26.20;99.90;;;;;;4946296;28;20233;-86
2022/06/21 08:27:18;;;;;;;9.70;8.77;;;26.10;99.90;;;;;;4948575;28;20240;-85
2022/06/21 08:29:51;;;;;;;10.32;8.88;;;26.20;99.90;;;;;;4946537;28;20218;-85
2022/06/21 08:32:27;;;;;;;9.93;9.13;;;26.30;99.90;;;;;;4956319;28;20969;-86
2022/06/21 08:34:59;;;;;;;9.27;8.38;;;26.40;99.90;;;;;;4952448;28;20253;-85
2022/06/21 08:37:35;;;;;;;9.75;8.95;;;26.30;99.90;;;;;;4956044;28;20198;-85
2022/06/21 08:40:21;;;;;;;9.65;8.68;;;26.20;99.90;;;;;;4957257;28;20225;-85
2022/06/21 08:43:22;;;;;;;9.68;8.68;;;26.30;99.90;;;;;;4955437;28;20198;-83
2022/06/21 08:46:21;;;;;;;11.50;9.45;;;26.60;99.90;;;;;;4950603;28;20238;-87
2022/06/21 08:49:15;;;;;;;10.88;9.73;;;27.00;99.90;;;;;;4951329;28;20621;-84
2022/06/21 08:52:16;;;;;;;11.05;9.13;;;27.20;99.90;;;;;;4952066;28;20224;-86
2022/06/21 08:54:57;;;;;;;9.70;8.75;;;27.30;99.90;;;;;;4945898;28;20224;-85
2022/06/21 08:57:33;;;;;;;11.30;9.45;;;27.40;99.90;;;;;;4950547;28;20238;-85
2022/06/21 09:00:12;;;;;;;10.65;9.65;;;27.80;99.90;;;;;;4949889;28;20229;-85
2022/06/21 09:03:05;;;;;;;10.50;9.48;;;27.90;99.90;;;;;;4955506;28;20205;-85
2022/06/21 09:05:56;;;;;;;11.35;10.25;;;28.10;99.90;;;;;;4937672;28;20237;-86
2022/06/21 09:08:42;;;;;;;10.80;9.25;;;27.80;99.90;;;;;;4949925;28;20300;-85
2022/06/21 09:11:25;;;;;;;11.68;10.52;;;27.70;99.90;;;;;;4951169;28;20214;-84
2022/06/21 09:14:08;;;;;;;12.05;9.90;;;27.60;99.90;;;;;;4939715;28;20209;-84
2022/06/21 09:16:46;;;;;;;10.82;9.82;;;27.60;99.90;;;;;;4954300;28;20765;-86
2022/06/21 09:19:28;;;;;;;11.02;9.75;;;27.60;99.90;;;;;;4947107;28;20205;-87
2022/06/21 09:22:06;;;;;;;11.18;10.07;;;27.70;99.90;;;;;;4957102;28;20289;-85
2022/06/21 09:24:40;;;;;;;12.52;9.50;;;27.80;99.90;;;;;;4950815;28;20211;-86
2022/06/21 09:27:15;;;;;;;11.80;10.20;;;28.10;99.90;;;;;;4947635;28;20222;-85
2022/06/21 09:29:57;;;;;;;11.10;9.68;;;28.30;99.90;;;;;;4952981;28;20205;-85
2022/06/21 09:32:33;;;;;;;10.35;9.07;;;28.40;99.90;;;;;;4956282;28;20199;-85
2022/06/21 09:35:11;;;;;;;12.73;9.80;;;28.60;99.90;;;;;;4948842;28;20222;-84
2022/06/21 09:37:52;;;;;;;10.27;9.27;;;28.60;99.90;;;;;;4952823;28;20249;-85
2022/06/21 09:40:27;;;;;;;13.48;9.80;;;28.70;99.90;;;;;;4950344;28;20225;-83
2022/06/21 09:43:04;;;;;;;12.07;10.85;;;28.90;99.90;;;;;;4948875;28;20225;-83
2022/06/21 09:45:37;;;;;;;9.65;8.70;;;28.90;99.90;;;;;;4950677;28;21150;-84
2022/06/21 09:48:14;;;;;;;9.27;8.23;;;28.90;99.90;;;;;;4955456;28;20208;-83
2022/06/21 09:50:53;;;;;;;11.75;9.52;;;29.20;99.90;;;;;;4955020;28;20226;-85
2022/06/21 09:53:29;;;;;;;11.90;9.73;;;29.20;99.90;;;;;;4950816;28;20964;-84
2022/06/21 09:56:04;;;;;;;9.82;8.93;;;29.10;99.90;;;;;;4953651;28;20221;-86
2022/06/21 09:58:40;;;;;;;11.13;8.80;;;29.20;99.90;;;;;;4955694;28;20198;-85
2022/06/21 10:01:13;;;;;;;9.27;8.23;;;29.40;99.90;;;;;;4953630;28;20540;-84
2022/06/21 10:03:46;;;;;;;9.20;7.82;;;29.60;99.90;;;;;;4954188;28;20208;-84
2022/06/21 10:06:20;;;;;;;10.75;8.90;;;29.50;99.90;;;;;;4949732;28;20226;-86
2022/06/21 10:09:21;;;;;;;11.32;9.10;;;29.40;99.90;;;;;;4956249;28;20221;-79
2022/06/21 10:11:57;;;;;;;10.63;8.75;;;29.20;99.90;;;;;;4959336;28;20246;-84
2022/06/21 10:14:42;;;;;;;10.07;8.70;;;29.20;99.90;;;;;;4959672;28;20221;-81
2022/06/21 10:17:39;;;;;;;9.52;8.68;;;29.00;99.90;;;;;;4954995;28;20233;-80
2022/06/21 10:20:27;;;;;;;9.13;7.70;;;29.00;99.90;;;;;;4950954;28;20214;-83
2022/06/21 10:23:05;;;;;;;8.75;6.80;;;29.20;99.90;;;;;;4955123;28;20198;-85
2022/06/21 10:25:55;;;;;;;8.65;7.82;;;29.40;99.90;;;;;;4954937;28;20244;-83
2022/06/21 10:29:01;;;;;;;9.65;7.78;;;29.50;99.90;;;;;;4949624;28;20775;-85
2022/06/21 10:32:05;;;;;;;9.07;7.97;;;29.80;99.90;;;;;;4947049;28;20218;-84
2022/06/21 10:34:57;;;;;;;9.43;8.18;;;29.80;99.90;;;;;;4953977;28;20197;-83
2022/06/21 10:37:35;;;;;;;9.43;7.35;;;29.70;99.90;;;;;;4949779;28;20229;-84
2022/06/21 10:40:34;;;;;;;7.57;6.97;;;29.70;99.90;;;;;;4950398;28;20236;-84
2022/06/21 10:43:40;;;;;;;10.55;9.00;;;29.80;99.90;;;;;;4959992;28;21033;-85
2022/06/21 10:46:11;;;;;;;11.35;8.43;;;29.80;99.90;;;;;;4955160;28;20229;-83
2022/06/21 10:49:14;;;;;;;10.68;8.30;;;29.70;99.90;;;;;;4951667;28;20220;-84
2022/06/21 10:52:33;;;;;;;9.90;8.07;;;29.90;99.90;;;;;;4940706;28;20226;-84
2022/06/21 10:55:27;;;;;;;8.35;7.50;;;30.20;99.90;;;;;;4870590;29;20196;-84
2022/06/21 10:58:02;;;;;;;9.70;7.63;;;30.30;99.90;;;;;;4869255;29;20846;-85
2022/06/21 11:03:36;;;;;;;8.45;7.60;;;30.40;99.90;;;;;;4950560;28;20257;-83
2022/06/21 11:06:33;;;;;;;9.52;7.47;;;30.50;99.90;;;;;;4952233;28;20707;-83
2022/06/21 11:09:17;;;;;;;10.15;7.45;;;30.60;99.90;;;;;;4951696;28;20238;-83
2022/06/21 11:11:51;;;;;;;9.93;8.40;;;30.60;99.90;;;;;;4956424;28;20230;-83
2022/06/21 11:14:32;;;;;;;8.82;7.30;;;30.60;99.90;;;;;;4952658;28;20237;-83
2022/06/21 11:17:08;;;;;;;8.93;8.10;;;30.60;99.90;;;;;;4956121;28;20342;-83
2022/06/21 11:19:43;;;;;;;11.95;8.43;;;30.70;99.90;;;;;;4953421;28;20229;-82
2022/06/21 11:22:30;;;;;;;9.32;8.52;;;30.60;99.90;;;;;;4951253;28;20202;-78
2022/06/21 11:25:12;;;;;;;9.80;8.43;;;30.60;99.90;;;;;;4951880;28;20228;-83
2022/06/21 11:27:59;;;;;;;10.23;7.47;;;30.60;99.90;;;;;;4954810;28;20475;-83
2022/06/21 11:30:34;;;;;;;8.38;7.28;;;30.60;99.90;;;;;;4954092;28;20222;-83
2022/06/21 11:33:11;;;;;;;9.32;6.80;;;30.80;99.90;;;;;;4949457;28;21078;-83
2022/06/21 11:35:45;;;;;;;8.63;7.22;;;30.90;99.90;;;;;;4952376;28;20221;-84
2022/06/21 11:38:32;;;;;;;9.80;6.65;;;31.00;99.90;;;;;;4953329;28;20248;-84
2022/06/21 11:41:06;;;;;;;10.80;6.97;;;31.30;99.90;;;;;;4951077;28;20936;-83
2022/06/21 11:43:50;;;;;;;8.27;6.72;;;31.30;99.90;;;;;;4947556;28;20870;-84
2022/06/21 11:46:26;;;;;;;6.97;6.07;;;31.50;99.90;;;;;;4951749;28;20225;-83
2022/06/21 11:49:26;;;;;;;7.25;6.53;;;31.80;99.90;;;;;;4954903;28;20205;-81
2022/06/21 11:52:17;;;;;;;8.85;6.20;;;31.90;99.90;;;;;;4951276;28;20222;-79
2022/06/21 11:54:51;;;;;;;7.00;5.70;;;32.00;99.90;;;;;;4938176;28;20198;-82
2022/06/21 11:57:27;;;;;;;9.35;6.78;;;32.00;99.90;;;;;;4953310;28;20228;-81
2022/06/21 12:00:01;;;;;;;7.22;5.68;;;31.80;99.90;;;;;;4950457;28;20614;-80
2022/06/21 12:02:39;;;;;;;7.00;6.30;;;31.80;99.90;;;;;;4948798;28;20894;-81
2022/06/21 12:05:21;;;;;;;9.55;5.40;;;31.90;99.90;;;;;;4952777;28;20201;-81
2022/06/21 12:07:54;;;;;;;6.72;5.57;;;32.10;99.90;;;;;;4951631;28;20267;-81
2022/06/21 12:10:29;;;;;;;6.88;5.57;;;32.00;99.90;;;;;;4949899;28;20230;-81
2022/06/21 12:13:08;;;;;;;9.63;6.45;;;31.80;99.90;;;;;;4955139;28;20209;-81
2022/06/21 12:15:49;;;;;;;6.45;5.82;;;31.90;99.90;;;;;;4955443;28;20229;-81
2022/06/21 12:18:20;;;;;;;7.10;5.53;;;32.00;99.90;;;;;;4955185;28;20190;-82
2022/06/21 12:20:52;;;;;;;8.30;5.53;;;32.20;99.90;;;;;;4953656;28;20221;-81
2022/06/21 12:23:26;;;;;;;5.93;5.20;;;32.40;99.90;;;;;;4949694;28;20210;-82
2022/06/21 12:25:54;;;;;;;5.78;5.22;;;32.70;99.90;;;;;;4950297;28;20621;-82
2022/06/21 12:28:25;;;;;;;8.40;5.30;;;32.90;99.90;;;;;;4952194;28;20217;-82
2022/06/21 12:30:54;;;;;;;7.72;5.55;;;32.90;99.90;;;;;;4950104;28;20234;-82
2022/06/21 12:33:24;;;;;;;7.85;5.93;;;33.00;99.90;;;;;;4952796;28;20202;-82
2022/06/21 12:36:22;;;;;;;8.48;5.63;;;33.10;99.90;;;;;;4953169;28;20226;-82
2022/06/21 12:38:55;;;;;;;5.18;4.68;;;32.80;99.90;;;;;;4948688;28;20190;-82
2022/06/21 12:41:33;;;;;;;5.22;4.72;;;32.50;99.90;;;;;;4945998;28;20236;-82
2022/06/21 12:44:09;;;;;;;6.32;4.60;;;32.20;99.90;;;;;;4946402;28;20205;-82
2022/06/21 12:46:48;;;;;;;6.22;4.65;;;32.00;99.90;;;;;;4953165;28;20724;-82
2022/06/21 12:49:35;;;;;;;6.68;4.13;;;31.80;99.90;;;;;;4943547;28;20724;-79
2022/06/21 12:52:07;;;;;;;5.93;5.28;;;31.70;99.90;;;;;;4947927;28;20292;-79
2022/06/21 12:54:49;;;;;;;8.43;5.45;;;31.30;99.90;;;;;;4949050;28;20197;-82
2022/06/21 12:57:51;;;;;;;4.38;4.07;;;31.00;99.90;;;;;;4950880;28;20221;-81
2022/06/21 13:00:38;;;;;;;4.38;3.97;;;30.70;99.90;;;;;;4941376;28;20204;-81
2022/06/21 13:03:42;;;;;;;4.47;3.92;;;30.50;99.90;;;;;;4954976;28;20206;-82
2022/06/21 13:06:27;;;;;;;5.82;4.30;;;30.30;99.90;;;;;;4948272;28;20617;-82
2022/06/21 13:09:24;;;;;;;6.47;4.20;;;30.10;99.90;;;;;;4947067;28;20276;-82
2022/06/21 13:12:11;;;;;;;7.20;4.30;;;29.90;99.90;;;;;;4948751;28;20237;-83
2022/06/21 13:15:04;;;;;;;7.93;4.72;;;29.70;99.90;;;;;;4951611;28;20202;-83
2022/06/21 13:18:10;;;;;;;6.72;4.20;;;29.20;99.90;;;;;;4951820;28;20583;-85
2022/06/21 13:20:50;;;;;;;10.95;5.13;;;28.50;99.90;;;;;;4872826;29;20280;-86
2022/06/21 13:23:26;;;;;;;10.48;5.60;;;27.40;99.90;;;;;;4935601;28;20194;-86
2022/06/21 13:26:01;;;;;;;10.88;4.18;;;26.40;99.90;;;;;;4953769;28;20233;-87
2022/06/21 13:28:55;;;;;;;4.75;3.30;;;25.60;99.90;;;;;;4950423;28;20224;-87
2022/06/21 13:31:31;;;;;;;6.03;2.95;;;25.30;99.90;;;;;;4954431;28;20222;-86
2022/06/21 13:34:05;;;;;;;5.75;2.92;;;25.30;99.90;;;;;;4952622;28;20229;-86
2022/06/21 13:36:41;;;;;;;4.90;2.90;;;25.40;99.90;;;;;;4956522;28;20304;-86
2022/06/21 13:39:26;;;;;;;3.22;2.65;;;25.50;99.90;;;;;;4960466;28;20653;-85